Time;durP1;ratioP1;P1;durP2;ratioP2;P2;SDS_P1;SDS_P2;PMS_P1;PMS_P2;Temp;Humidity;BMP_temperature;BMP_pressure;BME280_temperature;BME280_humidity;BME280_pressure;Samples;Min_cycle;Max_cycle;Signal;HPM_P1;HPM_P2
2022/10/29 00:01:10;;;;;;;13.98;4.40;;;;;;;11.12;100.00;96668.09;5031459;28;20395;-67
2022/10/29 00:03:36;;;;;;;9.88;3.72;;;;;;;11.08;100.00;96670.13;5029157;28;20029;-67
2022/10/29 00:06:04;;;;;;;12.75;4.03;;;;;;;11.04;100.00;96671.34;5025083;28;20475;-68
2022/10/29 00:08:31;;;;;;;15.10;4.25;;;;;;;11.00;100.00;96677.81;5031008;28;20025;-64
2022/10/29 00:11:18;;;;;;;9.85;4.38;;;;;;;10.92;100.00;96681.03;5030953;28;20017;-65
2022/10/29 00:13:44;;;;;;;12.48;4.13;;;;;;;10.94;100.00;96683.53;5011769;28;20034;-65
2022/10/29 00:16:15;;;;;;;22.48;4.55;;;;;;;10.91;100.00;96678.50;5030871;28;20036;-65
2022/10/29 00:18:41;;;;;;;20.58;4.90;;;;;;;10.90;100.00;96685.59;5030605;28;20086;-65
2022/10/29 00:21:10;;;;;;;10.43;4.50;;;;;;;10.91;100.00;96686.41;5030741;28;20021;-65
2022/10/29 00:23:35;;;;;;;12.02;4.55;;;;;;;10.89;100.00;96686.56;5030770;28;20088;-65
2022/10/29 00:26:01;;;;;;;19.10;4.22;;;;;;;10.89;100.00;96690.00;5030699;28;20399;-65
2022/10/29 00:28:27;;;;;;;13.20;4.05;;;;;;;10.80;100.00;96688.09;5031140;28;20548;-59
2022/10/29 00:30:52;;;;;;;21.58;4.75;;;;;;;10.77;100.00;96682.22;5031204;28;20017;-65
2022/10/29 00:33:19;;;;;;;10.90;4.20;;;;;;;10.75;100.00;96679.72;5030451;28;20123;-65
2022/10/29 00:36:11;;;;;;;7.75;4.03;;;;;;;10.79;100.00;96689.06;5030431;28;20029;-65
2022/10/29 00:38:37;;;;;;;13.15;4.50;;;;;;;10.80;100.00;96682.84;5030399;28;20045;-65
2022/10/29 00:41:05;;;;;;;11.23;4.32;;;;;;;10.78;100.00;96686.53;5030660;28;20017;-65
2022/10/29 00:43:35;;;;;;;12.90;4.22;;;;;;;10.78;100.00;96684.75;5030489;28;20426;-65
2022/10/29 00:46:19;;;;;;;11.27;3.88;;;;;;;10.74;100.00;96686.78;5030141;28;20032;-59
2022/10/29 00:48:51;;;;;;;19.05;5.18;;;;;;;10.70;100.00;96690.59;5030370;28;20037;-64
2022/10/29 00:51:17;;;;;;;11.95;5.10;;;;;;;10.68;100.00;96689.03;5030122;28;20515;-60
2022/10/29 00:53:48;;;;;;;10.88;4.00;;;;;;;10.66;100.00;96688.31;5030191;28;20411;-60
2022/10/29 00:56:15;;;;;;;12.73;4.10;;;;;;;10.59;100.00;96688.78;5029463;28;20475;-60
2022/10/29 00:58:41;;;;;;;7.50;4.63;;;;;;;10.60;100.00;96676.44;5029865;28;20470;-59
2022/10/29 01:01:07;;;;;;;16.05;4.57;;;;;;;10.64;100.00;96677.06;5029697;28;20232;-59
2022/10/29 01:03:32;;;;;;;7.80;4.03;;;;;;;10.68;100.00;96675.88;5030069;28;20060;-60
2022/10/29 01:05:59;;;;;;;13.30;4.45;;;;;;;10.70;100.00;96672.16;5030068;28;20025;-67
2022/10/29 01:08:25;;;;;;;12.63;4.05;;;;;;;10.73;100.00;96668.47;5030665;28;20438;-64
2022/10/29 01:11:27;;;;;;;12.45;4.65;;;;;;;10.67;100.00;96661.03;5030421;28;20025;-67
2022/10/29 01:14:03;;;;;;;11.57;5.80;;;;;;;10.63;100.00;96665.72;5029985;28;20553;-67
2022/10/29 01:16:42;;;;;;;18.00;4.82;;;;;;;10.62;100.00;96665.81;5029729;28;20113;-67
2022/10/29 01:19:16;;;;;;;11.15;4.93;;;;;;;10.58;100.00;96663.41;5017665;28;20036;-68
2022/10/29 01:21:45;;;;;;;19.75;7.90;;;;;;;10.58;100.00;96657.31;5029599;28;20469;-67
2022/10/29 01:24:45;;;;;;;16.40;6.22;;;;;;;10.55;100.00;96654.91;5029774;28;20021;-67
2022/10/29 01:27:46;;;;;;;11.63;5.45;;;;;;;10.49;100.00;96650.94;5017395;28;20096;-67
2022/10/29 01:30:14;;;;;;;12.35;5.38;;;;;;;10.48;100.00;96649.28;5029439;28;20075;-66
2022/10/29 01:32:46;;;;;;;18.20;5.15;;;;;;;10.46;100.00;96648.56;5029962;28;20376;-64
2022/10/29 01:35:39;;;;;;;9.88;4.72;;;;;;;10.47;100.00;96644.97;5029292;28;20057;-65
2022/10/29 01:38:21;;;;;;;8.13;4.68;;;;;;;10.44;100.00;96632.03;5029279;28;20040;-66
2022/10/29 01:41:13;;;;;;;9.48;4.18;;;;;;;10.42;100.00;96634.81;5029449;28;20494;-65
2022/10/29 01:43:55;;;;;;;11.20;4.57;;;;;;;10.37;100.00;96630.81;5018715;28;20041;-65
2022/10/29 01:46:44;;;;;;;12.50;4.03;;;;;;;10.31;100.00;96626.84;5028887;28;20083;-59
2022/10/29 01:49:16;;;;;;;18.58;6.00;;;;;;;10.34;100.00;96626.59;5029269;28;20025;-65
2022/10/29 01:51:43;;;;;;;14.57;4.68;;;;;;;10.32;100.00;96618.84;5029499;28;20032;-65
2022/10/29 01:54:10;;;;;;;13.25;5.00;;;;;;;10.28;100.00;96617.41;5029179;28;20033;-65
2022/10/29 01:56:36;;;;;;;11.30;4.05;;;;;;;10.28;100.00;96616.56;5029326;28;20080;-65
2022/10/29 01:59:06;;;;;;;13.75;4.88;;;;;;;10.29;100.00;96611.19;5029553;28;20466;-64
2022/10/29 02:02:00;;;;;;;13.02;4.63;;;;;;;10.35;100.00;96609.84;5029293;28;20493;-65
2022/10/29 02:05:13;;;;;;;11.57;3.97;;;;;;;10.42;100.00;96613.75;5027548;28;20048;-59
2022/10/29 02:08:02;;;;;;;14.93;4.35;;;;;;;10.44;100.00;96610.97;5026970;28;20063;-67
2022/10/29 02:10:30;;;;;;;9.35;3.80;;;;;;;10.41;100.00;96611.22;5029309;28;20502;-68
2022/10/29 02:12:56;;;;;;;14.32;4.55;;;;;;;10.37;100.00;96604.50;5032286;28;20044;-67
2022/10/29 02:15:36;;;;;;;14.80;4.32;;;;;;;10.30;100.00;96610.22;5032727;28;20491;-68
2022/10/29 02:18:04;;;;;;;14.10;4.50;;;;;;;10.29;100.00;96610.34;5033675;28;20026;-67
2022/10/29 02:20:30;;;;;;;7.72;4.22;;;;;;;10.26;100.00;96607.94;5033005;28;20017;-68
2022/10/29 02:22:55;;;;;;;10.50;4.53;;;;;;;10.24;100.00;96604.59;5033338;28;20039;-64
2022/10/29 02:25:22;;;;;;;9.90;3.75;;;;;;;10.24;100.00;96604.59;5032698;28;20075;-65
2022/10/29 02:27:47;;;;;;;13.77;4.00;;;;;;;10.19;100.00;96597.03;5033032;28;20029;-65
2022/10/29 02:30:13;;;;;;;9.48;4.47;;;;;;;10.14;100.00;96594.75;5032741;28;20378;-65
2022/10/29 02:32:38;;;;;;;8.45;4.03;;;;;;;10.15;100.00;96603.50;5032913;28;20025;-65
2022/10/29 02:35:04;;;;;;;12.40;4.03;;;;;;;10.14;100.00;96593.94;5033038;28;20148;-65
2022/10/29 02:37:29;;;;;;;8.27;4.15;;;;;;;10.13;100.00;96592.25;5032727;28;20549;-65
2022/10/29 02:39:55;;;;;;;14.65;4.15;;;;;;;10.08;100.00;96595.22;5032441;28;20018;-65
2022/10/29 02:42:20;;;;;;;8.32;4.30;;;;;;;10.02;100.00;96587.81;5032553;28;20037;-65
2022/10/29 02:44:45;;;;;;;9.48;4.03;;;;;;;9.98;100.00;96584.56;5032747;28;20021;-63
2022/10/29 02:47:11;;;;;;;11.90;4.15;;;;;;;9.98;100.00;96584.56;5032482;28;20036;-59
2022/10/29 02:49:36;;;;;;;13.35;3.70;;;;;;;9.95;100.00;96576.91;5032897;28;20461;-58
2022/10/29 02:52:02;;;;;;;7.10;3.88;;;;;;;9.96;100.00;96575.97;5032527;28;20454;-59
2022/10/29 02:54:27;;;;;;;13.88;4.18;;;;;;;9.96;100.00;96575.97;5032238;28;20384;-59
2022/10/29 02:56:53;;;;;;;14.30;4.07;;;;;;;9.91;100.00;96567.59;5032323;28;20049;-58
2022/10/29 02:59:18;;;;;;;10.23;4.85;;;;;;;9.87;100.00;96566.97;5032115;28;20052;-59
2022/10/29 03:01:43;;;;;;;11.27;4.60;;;;;;;9.86;100.00;96572.34;5032437;28;20060;-70
2022/10/29 03:04:10;;;;;;;10.88;4.32;;;;;;;9.85;100.00;96566.25;5032107;28;20088;-65
2022/10/29 03:06:36;;;;;;;11.77;3.83;;;;;;;9.85;100.00;96581.19;5032498;28;20425;-64
2022/10/29 03:09:02;;;;;;;9.60;4.20;;;;;;;9.80;100.00;96573.66;5032126;28;20108;-65
2022/10/29 03:11:27;;;;;;;10.02;3.78;;;;;;;9.83;100.00;96564.69;5032228;28;20379;-64
2022/10/29 03:13:53;;;;;;;13.65;3.88;;;;;;;9.82;100.00;96566.47;5031831;28;20028;-65
2022/10/29 03:16:18;;;;;;;9.85;4.15;;;;;;;9.78;100.00;96562.41;5031913;28;20060;-65
2022/10/29 03:18:43;;;;;;;12.68;3.90;;;;;;;9.77;100.00;96568.63;5031917;28;20022;-65
2022/10/29 03:21:09;;;;;;;9.07;4.10;;;;;;;9.74;100.00;96569.69;5032148;28;20021;-59
2022/10/29 03:23:34;;;;;;;10.85;4.50;;;;;;;9.74;100.00;96569.69;5031916;28;20079;-59
2022/10/29 03:26:00;;;;;;;12.32;4.30;;;;;;;9.72;100.00;96560.22;5032002;28;20029;-59
2022/10/29 03:28:27;;;;;;;10.90;3.80;;;;;;;9.72;100.00;96568.97;5031461;28;20026;-59
2022/10/29 03:30:53;;;;;;;15.77;4.05;;;;;;;9.72;100.00;96563.72;5032016;28;20029;-59
2022/10/29 03:33:18;;;;;;;12.43;3.92;;;;;;;9.72;100.00;96568.09;5031835;28;20100;-59
2022/10/29 03:35:44;;;;;;;9.02;4.28;;;;;;;9.75;100.00;96567.91;5031974;28;20032;-59
2022/10/29 03:38:09;;;;;;;15.35;4.90;;;;;;;9.73;100.00;96565.38;5031872;28;20072;-59
2022/10/29 03:40:34;;;;;;;13.68;3.72;;;;;;;9.75;100.00;96568.72;5031730;28;20479;-65
2022/10/29 03:43:00;;;;;;;11.15;3.80;;;;;;;9.73;100.00;96568.00;5031144;28;20025;-67
2022/10/29 03:45:25;;;;;;;20.42;9.65;;;;;;;9.69;100.00;96563.94;5031745;28;20411;-67
2022/10/29 03:47:50;;;;;;;16.65;5.63;;;;;;;9.67;100.00;96568.47;5031416;28;20021;-68
2022/10/29 03:50:16;;;;;;;11.88;3.92;;;;;;;9.63;100.00;96569.66;5031501;28;20021;-68
2022/10/29 03:52:41;;;;;;;11.13;4.40;;;;;;;9.63;100.00;96560.94;5031476;28;20390;-67
2022/10/29 03:55:07;;;;;;;11.45;4.43;;;;;;;9.66;100.00;96563.31;5031201;28;20021;-67
2022/10/29 03:57:33;;;;;;;14.70;5.43;;;;;;;9.62;100.00;96568.00;5031066;28;20116;-68
2022/10/29 03:59:59;;;;;;;9.88;4.55;;;;;;;9.61;100.00;96566.28;5031127;28;20109;-65
2022/10/29 04:02:25;;;;;;;11.25;4.38;;;;;;;9.61;100.00;96561.03;5031471;28;20075;-65
2022/10/29 04:04:51;;;;;;;10.65;4.20;;;;;;;9.58;100.00;96562.13;5029646;28;20033;-65
2022/10/29 04:07:17;;;;;;;9.20;4.30;;;;;;;9.59;100.00;96562.94;5031570;28;20040;-65
2022/10/29 04:09:42;;;;;;;7.72;3.92;;;;;;;9.58;100.00;96561.25;5031269;28;20474;-65
2022/10/29 04:12:08;;;;;;;13.48;4.25;;;;;;;9.54;100.00;96567.69;5031038;28;20537;-65
2022/10/29 04:14:33;;;;;;;11.07;6.05;;;;;;;9.54;100.00;96563.31;5031141;28;20035;-65
2022/10/29 04:16:59;;;;;;;8.10;4.28;;;;;;;9.53;100.00;96568.66;5029099;28;20414;-65
2022/10/29 04:19:24;;;;;;;11.25;4.22;;;;;;;9.50;100.00;96561.81;5030845;28;20037;-65
2022/10/29 04:21:50;;;;;;;13.00;4.95;;;;;;;9.49;100.00;96564.59;5030702;28;20028;-68
2022/10/29 04:24:15;;;;;;;13.95;5.18;;;;;;;9.49;100.00;96575.09;5030940;28;20021;-67
2022/10/29 04:26:44;;;;;;;9.70;4.35;;;;;;;9.48;100.00;96569.00;5030768;28;20018;-67
2022/10/29 04:29:10;;;;;;;11.38;4.43;;;;;;;9.49;100.00;96569.84;5030824;28;20519;-68
2022/10/29 04:31:35;;;;;;;13.10;5.03;;;;;;;9.49;100.00;96573.28;5030681;28;20129;-68
2022/10/29 04:34:01;;;;;;;16.42;4.57;;;;;;;9.49;100.00;96577.72;5030248;28;20030;-68
2022/10/29 04:36:26;;;;;;;10.98;4.53;;;;;;;9.46;100.00;96571.75;5030298;28;20049;-68
2022/10/29 04:38:52;;;;;;;16.10;4.55;;;;;;;9.42;100.00;96570.31;5030930;28;20067;-59
2022/10/29 04:41:17;;;;;;;9.43;4.65;;;;;;;9.44;100.00;96570.16;5030694;28;20071;-69
2022/10/29 04:43:43;;;;;;;11.32;4.03;;;;;;;9.45;100.00;96577.97;5030806;28;20033;-68
2022/10/29 04:46:09;;;;;;;12.23;4.20;;;;;;;9.41;100.00;96576.50;5030226;28;20104;-68
2022/10/29 04:48:34;;;;;;;13.02;4.25;;;;;;;9.42;100.00;96572.94;5030562;28;20703;-68
2022/10/29 04:50:59;;;;;;;15.18;3.95;;;;;;;9.39;100.00;96565.25;5030250;28;20014;-68
2022/10/29 04:53:25;;;;;;;11.30;4.20;;;;;;;9.41;100.00;96568.63;5030201;28;20029;-68
2022/10/29 04:55:50;;;;;;;7.40;3.90;;;;;;;9.38;100.00;96566.19;5029998;28;20109;-68
2022/10/29 04:58:18;;;;;;;9.13;4.40;;;;;;;9.35;100.00;96565.59;5030209;28;20453;-59
2022/10/29 05:00:44;;;;;;;13.85;5.18;;;;;;;9.35;100.00;96568.22;5030971;28;20092;-64
2022/10/29 05:03:10;;;;;;;12.00;4.40;;;;;;;9.35;100.00;96569.06;5030019;28;20022;-65
2022/10/29 05:05:37;;;;;;;14.80;4.90;;;;;;;9.34;100.00;96562.13;5030167;28;20025;-65
2022/10/29 05:08:04;;;;;;;7.88;4.15;;;;;;;9.36;100.00;96564.66;5029723;28;20041;-65
2022/10/29 05:10:35;;;;;;;14.80;4.75;;;;;;;9.33;100.00;96568.34;5029932;28;20024;-65
2022/10/29 05:13:06;;;;;;;13.45;5.38;;;;;;;9.30;100.00;96564.16;5017401;28;20067;-65
2022/10/29 05:15:31;;;;;;;14.40;5.40;;;;;;;9.32;100.00;96567.50;5029774;28;20033;-69
2022/10/29 05:17:57;;;;;;;11.73;4.97;;;;;;;9.32;100.00;96574.53;5030056;28;20479;-65
2022/10/29 05:20:23;;;;;;;13.43;4.40;;;;;;;9.28;100.00;96568.69;5029390;28;20025;-65
2022/10/29 05:22:48;;;;;;;8.88;4.25;;;;;;;9.27;100.00;96571.41;5030439;28;20430;-65
2022/10/29 05:25:15;;;;;;;15.98;4.88;;;;;;;9.26;100.00;96565.31;5029818;28;20026;-65
2022/10/29 05:27:40;;;;;;;6.30;4.00;;;;;;;9.26;100.00;96565.31;5029968;28;20053;-65
2022/10/29 05:30:06;;;;;;;13.43;4.25;;;;;;;9.24;100.00;96561.13;5029616;28;20661;-65
2022/10/29 05:32:32;;;;;;;16.50;5.00;;;;;;;9.26;100.00;96567.13;5029701;28;20021;-65
2022/10/29 05:34:57;;;;;;;17.92;4.53;;;;;;;9.27;100.00;96559.09;5029553;28;20017;-68
2022/10/29 05:37:26;;;;;;;19.67;5.35;;;;;;;9.29;100.00;96561.63;5029647;28;20013;-60
2022/10/29 05:39:53;;;;;;;18.63;4.50;;;;;;;9.26;100.00;96567.94;5029431;28;20026;-65
2022/10/29 05:42:18;;;;;;;15.02;4.68;;;;;;;9.24;100.00;96576.91;5029999;28;20079;-64
2022/10/29 05:44:43;;;;;;;13.50;4.25;;;;;;;9.27;100.00;96577.50;5029425;28;20021;-63
2022/10/29 05:47:09;;;;;;;13.23;4.85;;;;;;;9.28;100.00;96580.97;5029551;28;20410;-64
2022/10/29 05:49:34;;;;;;;12.05;4.60;;;;;;;9.29;100.00;96577.41;5029182;28;20122;-64
2022/10/29 05:52:00;;;;;;;10.95;4.40;;;;;;;9.29;100.00;96567.75;5029547;28;20029;-64
2022/10/29 05:54:25;;;;;;;12.25;4.63;;;;;;;9.33;100.00;96573.59;5028958;28;20017;-64
2022/10/29 05:56:50;;;;;;;10.63;4.20;;;;;;;9.31;100.00;96570.25;5029623;28;20053;-70
2022/10/29 05:59:16;;;;;;;10.55;4.38;;;;;;;9.30;100.00;96569.41;5029474;28;20033;-65
2022/10/29 06:01:41;;;;;;;9.20;4.07;;;;;;;9.29;100.00;96572.16;5029564;28;20056;-64
2022/10/29 06:04:06;;;;;;;12.98;4.43;;;;;;;9.27;100.00;96572.25;5029404;28;20105;-65
2022/10/29 06:06:32;;;;;;;8.52;4.22;;;;;;;9.25;100.00;96575.94;5029526;28;20399;-64
2022/10/29 06:08:58;;;;;;;15.30;4.18;;;;;;;9.23;100.00;96573.41;5029219;28;20032;-65
2022/10/29 06:11:23;;;;;;;12.65;4.40;;;;;;;9.25;100.00;96571.53;5029779;28;20014;-65
2022/10/29 06:13:49;;;;;;;12.45;6.80;;;;;;;9.25;100.00;96581.22;5029506;28;20013;-64
2022/10/29 06:16:14;;;;;;;14.07;5.90;;;;;;;9.26;100.00;96575.81;5029238;28;20080;-65
2022/10/29 06:18:39;;;;;;;10.77;5.70;;;;;;;9.29;100.00;96577.41;5028871;28;20483;-65
2022/10/29 06:21:05;;;;;;;11.27;5.30;;;;;;;9.27;100.00;96580.13;5029216;28;20053;-65
2022/10/29 06:23:30;;;;;;;13.70;4.90;;;;;;;9.29;100.00;96577.41;5028893;28;20620;-65
2022/10/29 06:26:00;;;;;;;8.50;4.35;;;;;;;9.32;100.00;96582.44;5029384;28;20033;-65
2022/10/29 06:28:25;;;;;;;14.60;5.25;;;;;;;9.36;100.00;96581.25;5029103;28;20518;-65
2022/10/29 06:30:51;;;;;;;13.40;4.30;;;;;;;9.37;100.00;96587.34;5029443;28;20096;-65
2022/10/29 06:33:17;;;;;;;11.95;4.20;;;;;;;9.39;100.00;96582.81;5028003;28;20067;-64
2022/10/29 06:35:43;;;;;;;11.10;4.53;;;;;;;9.38;100.00;96587.22;5029166;28;20037;-59
2022/10/29 06:38:08;;;;;;;16.67;4.93;;;;;;;9.42;100.00;96588.69;5028873;28;20022;-68
2022/10/29 06:40:34;;;;;;;16.00;4.78;;;;;;;9.46;100.00;96592.78;5028922;28;20060;-68
2022/10/29 06:43:05;;;;;;;10.60;4.47;;;;;;;9.52;100.00;96593.28;5028878;28;20052;-68
2022/10/29 06:45:32;;;;;;;10.27;4.97;;;;;;;9.54;100.00;96589.59;5028975;28;20017;-68
2022/10/29 06:47:57;;;;;;;10.98;5.10;;;;;;;9.55;100.00;96588.63;5028946;28;20027;-68
2022/10/29 06:50:23;;;;;;;15.43;4.85;;;;;;;9.59;100.00;96595.34;5044422;28;20013;-68
2022/10/29 06:52:56;;;;;;;10.40;4.40;;;;;;;9.64;100.00;96592.38;5028806;28;20044;-69
2022/10/29 06:55:22;;;;;;;11.95;4.30;;;;;;;9.68;100.00;96590.34;5028939;28;20108;-68
2022/10/29 06:57:47;;;;;;;10.88;5.22;;;;;;;9.71;100.00;96598.00;5029808;28;20132;-68
2022/10/29 07:00:12;;;;;;;16.23;4.85;;;;;;;9.77;100.00;96601.97;5032270;28;20103;-67
2022/10/29 07:02:38;;;;;;;12.30;4.95;;;;;;;9.80;100.00;96594.69;5032023;28;20025;-67
2022/10/29 07:05:03;;;;;;;13.10;4.50;;;;;;;9.88;100.00;96596.75;5032937;28;20021;-66
2022/10/29 07:07:29;;;;;;;6.55;4.25;;;;;;;9.89;100.00;96601.06;5031010;28;20505;-66
2022/10/29 07:09:54;;;;;;;12.50;5.10;;;;;;;9.94;100.00;96603.31;5032768;28;20028;-67
2022/10/29 07:12:20;;;;;;;9.57;4.78;;;;;;;10.00;100.00;96597.63;5031886;28;20033;-69
2022/10/29 07:14:45;;;;;;;12.30;5.30;;;;;;;10.08;100.00;96597.03;5032390;28;20510;-64
2022/10/29 07:17:10;;;;;;;13.98;4.47;;;;;;;10.16;100.00;96599.91;5032092;28;20049;-64
2022/10/29 07:19:36;;;;;;;16.83;5.20;;;;;;;10.25;100.00;96603.63;5031704;28;20076;-64
2022/10/29 07:22:01;;;;;;;11.63;5.25;;;;;;;10.34;100.00;96604.72;5031929;28;20071;-65
2022/10/29 07:24:26;;;;;;;13.27;4.72;;;;;;;10.41;100.00;96605.94;5032642;28;20025;-64
2022/10/29 07:26:52;;;;;;;14.45;4.68;;;;;;;10.44;100.00;96608.34;5031947;28;20018;-64
2022/10/29 07:29:17;;;;;;;11.75;4.50;;;;;;;10.52;100.00;96607.75;5032178;28;20030;-64
2022/10/29 07:31:42;;;;;;;11.88;5.18;;;;;;;10.58;100.00;96612.53;5031988;28;20391;-65
2022/10/29 07:34:08;;;;;;;11.48;4.72;;;;;;;10.67;100.00;96613.63;5032010;28;20029;-65
2022/10/29 07:36:33;;;;;;;14.88;5.20;;;;;;;10.73;100.00;96610.53;5031409;28;20068;-65
2022/10/29 07:38:59;;;;;;;11.38;4.30;;;;;;;10.84;100.00;96607.06;5031994;28;20033;-65
2022/10/29 07:41:25;;;;;;;12.75;4.97;;;;;;;10.91;100.00;96617.91;5031633;28;20033;-65
2022/10/29 07:43:50;;;;;;;10.27;4.47;;;;;;;10.98;100.00;96613.84;5032182;28;20536;-65
2022/10/29 07:46:15;;;;;;;11.40;4.50;;;;;;;11.06;100.00;96610.63;5031365;28;20032;-64
2022/10/29 07:48:41;;;;;;;16.88;6.13;;;;;;;11.15;100.00;96615.97;5031503;28;20027;-65
2022/10/29 07:51:06;;;;;;;11.27;4.47;;;;;;;11.25;100.00;96613.44;5031110;28;20121;-68
2022/10/29 07:53:32;;;;;;;9.75;5.43;;;;;;;11.35;100.00;96613.53;5031753;28;20352;-65
2022/10/29 07:55:58;;;;;;;24.52;5.80;;;;;;;11.44;100.00;96612.78;5031413;28;20059;-65
2022/10/29 07:58:24;;;;;;;18.40;5.20;;;;;;;11.54;100.00;96620.78;5030877;28;20404;-65
2022/10/29 08:00:50;;;;;;;8.38;4.78;;;;;;;11.65;100.00;96624.34;5031239;28;20029;-65
2022/10/29 08:03:16;;;;;;;14.32;5.32;;;;;;;11.69;100.00;96617.84;5030099;28;20522;-65
2022/10/29 08:05:41;;;;;;;10.60;5.18;;;;;;;11.72;100.00;96623.72;5031338;28;20091;-65
2022/10/29 08:08:07;;;;;;;14.95;4.60;;;;;;;11.78;100.00;96626.81;5030981;28;20498;-65
2022/10/29 08:10:34;;;;;;;9.77;4.85;;;;;;;11.85;100.00;96628.81;5030539;28;20026;-70
2022/10/29 08:13:01;;;;;;;10.40;4.40;;;;;;;11.94;100.00;96629.03;5030692;28;20021;-71
2022/10/29 08:15:28;;;;;;;19.90;4.47;;;;;;;12.08;100.00;96623.47;5030935;28;20072;-71
2022/10/29 08:17:55;;;;;;;14.70;4.70;;;;;;;12.27;100.00;96622.75;5031223;28;20079;-70
2022/10/29 08:20:23;;;;;;;10.05;4.35;;;;;;;12.45;100.00;96623.00;5030908;28;20032;-71
2022/10/29 08:22:48;;;;;;;18.42;4.45;;;;;;;12.60;100.00;96620.03;5030918;28;20022;-70
2022/10/29 08:25:14;;;;;;;16.10;4.35;;;;;;;12.75;100.00;96616.03;5030830;28;20032;-71
2022/10/29 08:27:40;;;;;;;9.35;4.30;;;;;;;12.91;100.00;96620.00;5030861;28;20033;-65
2022/10/29 08:30:07;;;;;;;9.70;4.30;;;;;;;13.04;100.00;96617.13;5030807;28;20014;-71
2022/10/29 08:32:34;;;;;;;12.23;3.85;;;;;;;13.16;100.00;96618.69;5031248;28;20091;-70
2022/10/29 08:35:00;;;;;;;8.50;3.72;;;;;;;13.30;100.00;96612.19;5030480;28;20387;-70
2022/10/29 08:37:25;;;;;;;16.42;4.68;;;;;;;13.46;99.74;96610.81;5030656;28;20047;-70
2022/10/29 08:39:51;;;;;;;11.23;3.72;;;;;;;13.60;100.00;96605.13;5030360;28;20037;-70
2022/10/29 08:42:25;;;;;;;11.23;3.75;;;;;;;13.77;100.00;96609.88;5030548;28;20040;-69
2022/10/29 08:45:19;;;;;;;12.07;3.93;;;;;;;13.83;100.00;96604.84;5030366;28;20080;-70
2022/10/29 08:47:45;;;;;;;14.38;3.92;;;;;;;13.93;97.81;96598.72;5030306;28;20585;-65
2022/10/29 08:50:28;;;;;;;14.15;4.00;;;;;;;14.07;92.42;96597.47;5030459;28;20100;-60
2022/10/29 08:52:54;;;;;;;11.60;3.50;;;;;;;14.16;92.46;96605.38;5030443;28;20458;-66
2022/10/29 08:55:23;;;;;;;15.55;3.35;;;;;;;14.26;92.00;96609.81;5025869;28;20029;-68
2022/10/29 08:57:54;;;;;;;12.60;3.45;;;;;;;14.34;90.02;96607.28;5029693;28;20076;-68
2022/10/29 09:00:22;;;;;;;19.10;4.13;;;;;;;14.44;87.13;96600.16;5030291;28;20021;-68
2022/10/29 09:02:54;;;;;;;18.73;3.90;;;;;;;14.55;85.16;96607.09;5030036;28;20031;-67
2022/10/29 09:05:26;;;;;;;11.80;3.72;;;;;;;14.64;85.03;96602.75;5030255;28;20499;-68
2022/10/29 09:08:13;;;;;;;10.68;3.70;;;;;;;14.73;84.92;96601.09;5029657;28;20104;-59
2022/10/29 09:10:53;;;;;;;13.18;3.40;;;;;;;14.84;84.34;96606.19;5030099;28;20495;-71
2022/10/29 09:13:43;;;;;;;15.45;4.30;;;;;;;15.02;83.50;96606.22;5030017;28;20049;-71
2022/10/29 09:16:14;;;;;;;11.57;4.07;;;;;;;15.18;85.45;96600.28;5020800;28;20542;-71
2022/10/29 09:19:01;;;;;;;10.70;4.20;;;;;;;15.35;89.02;96592.50;5027163;28;20025;-71
2022/10/29 09:21:43;;;;;;;12.90;3.90;;;;;;;15.52;89.28;96593.50;5029309;28;20487;-71
2022/10/29 09:24:17;;;;;;;19.02;3.65;;;;;;;15.69;87.62;96593.66;5034392;28;20026;-71
2022/10/29 09:26:57;;;;;;;10.57;3.37;;;;;;;15.83;86.73;96600.28;5029599;28;20056;-65
2022/10/29 09:29:25;;;;;;;10.18;3.88;;;;;;;15.90;85.65;96590.72;5030084;28;20026;-64
2022/10/29 09:32:03;;;;;;;12.18;3.85;;;;;;;16.02;82.25;96586.81;5029324;28;20013;-68
2022/10/29 09:34:39;;;;;;;10.85;4.00;;;;;;;16.14;80.82;96583.94;5029760;28;20483;-67
2022/10/29 09:37:14;;;;;;;9.75;3.15;;;;;;;16.28;77.92;96583.38;5029670;28;20029;-67
2022/10/29 09:39:43;;;;;;;10.32;3.55;;;;;;;16.40;77.84;96577.78;5016569;28;20025;-67
2022/10/29 09:42:16;;;;;;;12.73;3.83;;;;;;;16.47;74.62;96578.84;5029901;28;20544;-67
2022/10/29 09:44:51;;;;;;;10.35;3.85;;;;;;;16.54;74.40;96569.25;5029392;28;20103;-67
2022/10/29 09:48:01;;;;;;;16.23;3.78;;;;;;;16.55;73.18;96570.06;5029673;28;20453;-68
2022/10/29 09:50:35;;;;;;;11.23;3.90;;;;;;;16.59;75.72;96574.91;4987789;28;20066;-67
2022/10/29 09:53:01;;;;;;;14.53;3.80;;;;;;;16.68;81.74;96564.31;4981364;28;20531;-67
2022/10/29 09:55:33;;;;;;;10.88;3.95;;;;;;;16.67;86.31;96563.50;5000308;28;20132;-68
2022/10/29 09:57:58;;;;;;;11.57;3.72;;;;;;;16.69;86.75;96566.81;5028960;28;20103;-68
2022/10/29 10:00:26;;;;;;;9.18;3.40;;;;;;;16.70;86.40;96560.50;5029506;28;20041;-67
2022/10/29 10:02:58;;;;;;;7.82;3.25;;;;;;;16.74;87.56;96553.06;5016545;28;20038;-68
2022/10/29 10:05:29;;;;;;;10.50;3.75;;;;;;;16.82;87.61;96561.06;5029544;28;20071;-65
2022/10/29 10:08:09;;;;;;;10.60;3.55;;;;;;;16.94;84.68;96555.47;5029040;28;20083;-59
2022/10/29 10:10:47;;;;;;;10.82;3.80;;;;;;;17.07;84.33;96558.50;5028925;28;20036;-69
2022/10/29 10:13:13;;;;;;;14.00;3.83;;;;;;;17.07;81.95;96555.84;5029548;28;20021;-69
2022/10/29 10:15:51;;;;;;;14.10;3.88;;;;;;;17.10;80.75;96554.72;5029162;28;20029;-69
2022/10/29 10:18:19;;;;;;;10.25;3.67;;;;;;;17.12;79.42;96555.38;5029114;28;20032;-69
2022/10/29 10:20:48;;;;;;;12.60;3.17;;;;;;;17.18;80.33;96560.03;5029246;28;20025;-68
2022/10/29 10:23:24;;;;;;;15.13;3.22;;;;;;;17.31;78.87;96548.94;5028500;28;20028;-69
2022/10/29 10:25:55;;;;;;;8.32;3.50;;;;;;;17.41;78.12;96546.97;5018830;28;20030;-59
2022/10/29 10:28:34;;;;;;;11.60;3.53;;;;;;;17.41;75.23;96546.97;5029229;28;20112;-65
2022/10/29 10:31:02;;;;;;;10.07;3.33;;;;;;;17.49;74.96;96550.63;5029250;28;20036;-64
2022/10/29 10:33:27;;;;;;;8.57;3.45;;;;;;;17.53;72.65;96538.66;5030757;28;20052;-65
2022/10/29 10:35:53;;;;;;;15.43;3.47;;;;;;;17.58;71.57;96533.69;5033263;28;20483;-65
2022/10/29 10:38:20;;;;;;;10.48;3.33;;;;;;;17.66;71.21;96530.16;5032745;28;20072;-65
2022/10/29 10:40:54;;;;;;;11.20;3.70;;;;;;;17.81;71.60;96522.38;5033009;28;20036;-64
2022/10/29 10:43:23;;;;;;;12.93;3.72;;;;;;;17.92;72.28;96527.34;5021451;28;20022;-65
2022/10/29 10:45:57;;;;;;;12.32;3.50;;;;;;;17.94;69.13;96521.84;5032703;28;20510;-65
2022/10/29 10:48:26;;;;;;;10.20;3.50;;;;;;;17.98;69.25;96517.84;5032901;28;20040;-65
2022/10/29 10:51:19;;;;;;;10.10;3.42;;;;;;;17.98;65.06;96515.19;5032434;28;20021;-64
2022/10/29 10:53:46;;;;;;;8.75;3.47;;;;;;;18.11;67.26;96514.69;5033178;28;20025;-64
2022/10/29 10:56:20;;;;;;;14.43;3.88;;;;;;;18.23;66.31;96509.84;5027029;28;20029;-64
2022/10/29 10:58:51;;;;;;;19.13;4.15;;;;;;;18.33;66.29;96502.47;5032695;28;20107;-64
2022/10/29 11:01:39;;;;;;;9.80;4.05;;;;;;;18.43;62.06;96496.94;5032860;28;20045;-64
2022/10/29 11:04:19;;;;;;;8.15;3.85;;;;;;;18.49;63.93;96500.75;5030462;28;20021;-59
2022/10/29 11:06:50;;;;;;;15.13;3.47;;;;;;;18.60;60.54;96501.22;5032425;28;20117;-67
2022/10/29 11:09:27;;;;;;;11.20;3.60;;;;;;;18.73;61.83;96497.19;5028181;28;20120;-67
2022/10/29 11:12:26;;;;;;;12.10;3.45;;;;;;;18.89;62.32;96485.59;5032089;28;20396;-68
2022/10/29 11:15:14;;;;;;;9.85;3.22;;;;;;;19.05;64.02;96490.03;5032165;28;20079;-68
2022/10/29 11:17:58;;;;;;;10.70;3.80;;;;;;;19.18;61.36;96479.63;5020660;28;20521;-67
2022/10/29 11:20:35;;;;;;;12.98;3.70;;;;;;;19.30;64.26;96468.50;5031980;28;20080;-68
2022/10/29 11:23:26;;;;;;;11.57;3.55;;;;;;;19.42;63.25;96467.09;5032249;28;20025;-69
2022/10/29 11:26:01;;;;;;;12.95;3.75;;;;;;;19.54;65.83;96475.53;5032594;28;20091;-67
2022/10/29 11:29:08;;;;;;;16.45;3.58;;;;;;;19.69;63.34;96459.53;5018521;28;20049;-67
2022/10/29 11:31:33;;;;;;;8.35;3.20;;;;;;;19.78;63.27;96465.63;5030516;28;20037;-67
2022/10/29 11:34:29;;;;;;;13.75;3.50;;;;;;;19.80;63.68;96460.13;5032039;28;20400;-67
2022/10/29 11:37:05;;;;;;;13.00;4.10;;;;;;;19.79;64.83;96455.78;5031743;28;20025;-67